Latest Weather Observations for Sydney Airport

IDN60901

Issued at 5:35 am EDT Monday 24 November 2014 (issued every 10 minutes, with the page automatically refreshed every 10 minutes)

About weather observations | Map of Sydney area stations | Latest observations for Sydney area | Other Formats
Station Details ID: 066037 Name: SYDNEY AIRPORT AMO Lat: -33.95 Lon: 151.17 Height: 6.0 m
Data from the previous 72 hours. | See also: Recent months at Sydney Airport
Date/Time
EDT
Tmp

°C
App
Tmp
°C
Dew
Point
°C
Rel
Hum
%
Delta-T

°C
Wind Press
QNH
hPa
Press
MSL
hPa
Rain
since
9 am
mm
Dir
 
Spd
km/h
Gust
km/h
Spd
kts
Gust
kts
24/05:30am 21.1 20.3 18.4 84 1.7 SSE 20 26 11 14 1013.2 1013.2 0.0
24/05:00am 21.1 20.7 18.9 87 1.4 SSE 19 26 10 14 1012.2 1012.2 0.0
24/04:30am 21.4 21.1 19.5 89 1.2 S 20 26 11 14 1012.0 1012.0 0.0
24/04:00am 21.3 21.5 19.4 89 1.2 SSW 17 20 9 11 1011.8 1011.8 0.0
24/03:30am 21.1 21.3 19.4 90 1.1 SSW 17 19 9 10 1011.6 1011.6 0.0
24/03:00am 21.2 21.5 19.5 90 1.1 S 17 24 9 13 1011.8 1011.8 0.0
24/02:30am 21.3 22.0 18.9 86 1.5 S 13 19 7 10 1012.2 1012.2 0.0
24/02:00am 21.4 21.0 19.0 86 1.5 S 19 24 10 13 1012.6 1012.6 0.0
24/01:30am 21.7 21.3 19.0 84 1.7 SSW 19 22 10 12 1013.3 1013.3 0.0
24/01:00am 21.9 22.2 19.5 86 1.5 S 17 20 9 11 1013.3 1013.3 0.0
24/12:30am 21.9 21.6 19.5 86 1.5 SSW 20 26 11 14 1013.6 1013.6 0.0
24/12:00am 21.8 23.4 19.1 84 1.7 ESE 9 13 5 7 1013.6 1013.6 0.0
 
Date/Time
EDT
Tmp

°C
App
Tmp
°C
Dew
Point
°C
Rel
Hum
%
Delta-T

°C
Wind Press
QNH
hPa
Press
MSL
hPa
Rain
since
9 am
mm
Dir
 
Spd
km/h
Gust
km/h
Spd
kts
Gust
kts
23/11:30pm 22.0 22.4 19.8 87 1.4 SSW 17 20 9 11 1013.9 1013.9 0.0
23/11:00pm 21.6 23.1 19.7 89 1.2 S 11 17 6 9 1013.7 1013.7 0.0
23/10:30pm 21.7 21.9 19.3 86 1.5 S 17 24 9 13 1013.6 1013.6 0.0
23/10:00pm 21.7 21.2 19.2 86 1.6 SE 20 26 11 14 1013.6 1013.6 0.0
23/09:30pm 21.8 19.8 19.9 89 1.2 S 30 39 16 21 1012.8 1012.8 0.0
23/09:00pm 22.1 21.4 19.6 86 1.6 S 22 30 12 16 1012.7 1012.7 0.0
23/08:30pm 22.1 19.6 20.2 89 1.2 S 33 43 18 23 1013.2 1013.2 0.0
23/08:13pm 22.3 18.0 20.4 89 1.2 SSW 43 52 23 28 1013.8 1013.8 0.0
23/08:00pm 22.2 19.5 20.5 90 1.1 S 35 48 19 26 1011.8 1011.8 0.0
23/07:30pm 22.0 18.0 20.1 89 1.2 S 41 50 22 27 1011.2 1011.2 0.0
23/07:00pm 21.8 17.3 20.2 91 1.0 S 44 57 24 31 1009.1 1009.1 0.0
23/06:30pm 22.0 17.7 20.3 90 1.1 S 43 54 23 29 1008.6 1008.6 0.0
23/06:00pm 23.4 21.4 20.0 81 2.2 SE 30 35 16 19 1008.5 1008.5 0.0
23/05:43pm 23.3 21.4 20.2 83 2.0 SE 30 35 16 19 1008.5 1008.5 0.0
23/05:30pm 23.9 22.3 20.0 79 2.5 ESE 28 32 15 17 1007.9 1007.9 0.0
23/05:00pm 25.6 24.7 19.9 70 3.7 SE 24 37 13 20 1007.1 1007.1 0.0
23/04:30pm 25.4 23.2 19.5 70 3.8 E 30 35 16 19 1007.3 1007.3 0.0
23/04:10pm 24.0 20.3 19.9 78 2.6 ESE 39 43 21 23 1007.6 1007.6 0.0
23/04:00pm 25.0 22.3 19.7 72 3.4 SE 33 44 18 24 1007.4 1007.4 0.0
23/03:56pm 25.7 23.1 19.8 70 3.8 SE 33 44 18 24 1007.8 1007.8 0.0
23/03:30pm 31.0 28.7 18.5 47 8.1 SSE 28 39 15 21 1007.4 1007.4 0.0
23/03:00pm 31.9 29.4 17.1 41 9.4 NE 26 39 14 21 1007.3 1007.3 0.0
23/02:30pm 31.7 30.6 18.6 45 8.5 E 22 28 12 15 1007.7 1007.7 0.0
23/02:00pm 32.0 30.4 18.4 44 8.8 ENE 24 32 13 17 1008.0 1008.0 0.0
23/01:30pm 30.6 29.4 19.3 51 7.4 E 24 28 13 15 1008.5 1008.5 0.0
23/01:00pm 29.5 28.4 18.6 52 7.0 ENE 22 26 12 14 1009.1 1009.1 0.0
23/12:30pm 28.7 27.6 18.6 54 6.5 E 22 26 12 14 1009.6 1009.6 0.0
23/12:00pm 28.4 27.7 18.6 55 6.3 E 20 26 11 14 1010.4 1010.4 0.0
23/11:30am 28.5 27.4 18.7 55 6.3 E 22 28 12 15 1010.7 1010.7 0.0
23/11:00am 27.8 27.3 19.1 59 5.6 E 20 22 11 12 1010.9 1010.9 0.0
23/10:30am 27.6 27.7 19.1 59 5.5 SE 17 20 9 11 1011.0 1011.0 0.0
23/10:00am 28.0 29.5 18.1 55 6.3 ESE 7 9 4 5 1010.9 1010.9 0.0
23/09:30am 25.4 27.1 18.5 65 4.4 E 7 9 4 5 1011.3 1011.3 0.0
23/09:00am 25.5 27.2 18.4 65 4.5 WNW 7 9 4 5 1011.4 1011.4 0.0
23/08:30am 24.5 25.6 18.0 67 4.1 WNW 9 13 5 7 1011.4 1011.4 0.0
23/08:00am 23.2 24.3 18.1 73 3.2 NW 9 13 5 7 1011.2 1011.2 0.0
23/07:30am 22.1 22.1 18.1 78 2.5 NNW 15 17 8 9 1011.1 1011.1 0.0
23/07:00am 21.4 22.2 18.2 82 2.0 N 11 15 6 8 1010.8 1010.8 0.0
23/06:30am 20.7 21.5 18.1 85 1.6 NNW 11 15 6 8 1010.8 1010.8 0.0
23/06:00am 20.5 21.3 18.2 87 1.4 NNW 11 13 6 7 1011.1 1011.1 0.0
23/05:30am 20.5 20.9 18.2 87 1.4 N 13 17 7 9 1010.8 1010.8 0.0
23/05:00am 20.3 20.7 18.2 88 1.3 N 13 19 7 10 1010.5 1010.5 0.0
23/04:30am 20.8 21.2 18.2 85 1.6 N 13 15 7 8 1010.4 1010.4 0.0
23/04:00am 20.7 21.5 18.1 85 1.6 N 11 13 6 7 1010.4 1010.4 0.0
23/03:30am 21.1 22.3 18.2 83 1.8 N 9 9 5 5 1010.8 1010.8 0.0
23/03:00am 21.3 22.5 18.3 83 1.9 N 9 9 5 5 1010.7 1010.7 0.0
23/02:30am 21.3 22.2 18.3 83 1.9 N 11 13 6 7 1010.9 1010.9 0.0
23/02:00am 21.3 22.2 18.4 83 1.8 N 11 11 6 6 1011.5 1011.5 0.0
23/01:30am 21.6 22.0 18.2 81 2.1 N 13 13 7 7 1011.6 1011.6 0.0
23/01:00am 21.6 22.9 18.4 82 2.0 NW 9 11 5 6 1012.0 1012.0 0.0
23/12:30am 22.1 22.6 18.4 79 2.3 N 13 17 7 9 1012.3 1012.3 0.0
23/12:00am 21.7 23.0 18.5 82 2.0 NW 9 13 5 7 1013.0 1013.0 0.0
 
Date/Time
EDT
Tmp

°C
App
Tmp
°C
Dew
Point
°C
Rel
Hum
%
Delta-T

°C
Wind Press
QNH
hPa
Press
MSL
hPa
Rain
since
9 am
mm
Dir
 
Spd
km/h
Gust
km/h
Spd
kts
Gust
kts
22/11:30pm 22.4 22.9 18.4 78 2.5 NE 13 15 7 8 1012.6 1012.6 0.0
22/11:00pm 22.4 22.9 18.4 78 2.5 NE 13 15 7 8 1013.1 1013.1 0.0
22/10:30pm 21.4 22.0 18.5 83 1.8 NE 13 15 7 8 1013.2 1013.2 0.0
22/10:00pm 21.9 22.1 18.6 81 2.1 NE 15 19 8 10 1013.4 1013.4 0.0
22/09:30pm 22.3 22.1 18.5 79 2.4 NNE 17 22 9 12 1013.3 1013.3 0.0
22/09:00pm 21.8 21.9 18.4 81 2.1 NE 15 19 8 10 1012.9 1012.9 0.0
22/08:30pm 21.3 21.8 18.3 83 1.9 NNE 13 17 7 9 1012.3 1012.3 0.0
22/08:00pm 21.7 21.7 18.2 80 2.2 NE 15 19 8 10 1012.0 1012.0 0.0
22/07:30pm 21.5 20.5 18.0 80 2.2 ENE 20 26 11 14 1011.8 1011.8 0.0
22/07:00pm 21.6 19.3 17.5 77 2.5 NE 26 32 14 17 1011.4 1011.4 0.0
22/06:30pm 21.7 20.1 17.5 77 2.6 E 22 28 12 15 1011.3 1011.3 0.0
22/06:00pm 21.7 19.7 17.5 77 2.6 E 24 30 13 16 1011.0 1011.0 0.0
22/05:30pm 22.7 20.2 17.0 70 3.5 E 26 30 14 16 1011.0 1011.0 0.0
22/05:00pm 22.5 20.1 16.4 68 3.7 E 24 30 13 16 1011.0 1011.0 0.0
22/04:30pm 23.8 21.4 15.5 59 5.0 E 22 28 12 15 1011.0 1011.0 0.0
22/04:00pm 24.4 21.5 15.1 56 5.6 ENE 24 30 13 16 1010.8 1010.8 0.0
22/03:30pm 24.2 22.0 15.0 56 5.5 E 20 28 11 15 1011.1 1011.1 0.0
22/03:00pm 24.1 21.5 14.9 56 5.5 E 22 30 12 16 1011.6 1011.6 0.0
22/02:30pm 25.5 22.8 14.6 51 6.5 ESE 22 28 12 15 1011.9 1011.9 0.0
22/02:00pm 24.7 22.5 14.4 52 6.1 ESE 19 26 10 14 1012.7 1012.7 0.0
22/01:30pm 24.5 22.1 14.4 53 6.0 ESE 20 26 11 14 1013.0 1013.0 0.0
22/01:00pm 24.6 22.2 14.3 52 6.1 E 20 24 11 13 1013.4 1013.4 0.0
22/12:30pm 25.1 22.6 14.1 50 6.5 SE 20 26 11 14 1013.8 1013.8 0.0
22/12:26pm 25.7 23.3 14.3 49 6.8 ESE 20 28 11 15 1013.8 1013.8 0.0
22/12:00pm 24.2 21.8 13.8 52 6.1 SE 19 24 10 13 1014.3 1014.3 0.0
22/11:30am 23.2 20.9 14.0 56 5.4 SSE 19 24 10 13 1014.8 1014.8 0.0
22/11:00am 23.8 22.5 13.7 53 5.9 ENE 13 19 7 10 1015.0 1015.0 0.0
22/10:30am 23.0 21.6 13.5 55 5.5 E 13 17 7 9 1015.2 1015.2 0.0
22/10:00am 21.1 19.6 14.2 64 4.0 S 15 24 8 13 1016.3 1016.3 0.0
22/09:30am 20.8 19.5 13.7 64 4.1 S 13 17 7 9 1016.3 1016.3 0.0
22/09:00am 21.1 19.9 14.0 64 4.1 SSE 13 17 7 9 1016.1 1016.1 0.0
22/08:30am 20.8 19.0 13.3 62 4.3 SSE 15 20 8 11 1015.8 1015.8 0.0
22/08:00am 20.4 18.8 14.0 66 3.7 S 15 19 8 10 1016.1 1016.1 0.0
22/07:30am 20.1 18.0 14.6 70 3.2 S 19 22 10 12 1015.9 1015.9 0.0
22/07:00am 20.0 17.7 14.1 69 3.4 S 19 22 10 12 1015.7 1015.7 0.0
22/06:30am 19.7 17.4 14.7 73 2.9 S 20 26 11 14 1015.3 1015.3 0.0
22/06:00am 19.6 17.5 15.2 76 2.6 S 20 26 11 14 1014.8 1014.8 0.0
22/05:30am 19.6 16.7 15.2 76 2.6 S 24 32 13 17 1014.6 1014.6 0.0
22/05:00am 19.7 17.7 15.5 77 2.5 S 20 26 11 14 1014.1 1014.1 0.0
22/04:30am 19.8 17.8 15.4 76 2.6 S 20 26 11 14 1013.9 1013.9 0.0
22/04:00am 19.7 17.3 15.3 76 2.6 S 22 30 12 16 1013.8 1013.8 0.0
22/03:30am 19.8 16.8 15.9 78 2.3 S 26 30 14 16 1013.9 1013.9 0.0
22/03:00am 20.0 17.0 15.8 77 2.5 S 26 32 14 17 1013.9 1013.9 0.0
22/02:30am 20.1 17.1 15.9 77 2.5 S 26 32 14 17 1014.1 1014.1 0.0
22/02:00am 20.3 16.9 16.7 80 2.2 S 30 37 16 20 1014.1 1014.1 0.0
22/01:30am 20.4 16.7 16.9 80 2.1 S 32 39 17 21 1014.2 1014.2 0.0
22/01:00am 20.4 16.5 16.9 80 2.1 S 33 41 18 22 1014.2 1014.2 0.0
22/12:30am 20.6 16.3 17.0 80 2.2 S 35 43 19 23 1014.2 1014.2 0.0
22/12:00am 20.5 16.7 17.1 81 2.1 S 33 43 18 23 1014.3 1014.3 0.0
 
Date/Time
EDT
Tmp

°C
App
Tmp
°C
Dew
Point
°C
Rel
Hum
%
Delta-T

°C
Wind Press
QNH
hPa
Press
MSL
hPa
Rain
since
9 am
mm
Dir
 
Spd
km/h
Gust
km/h
Spd
kts
Gust
kts
21/11:30pm 20.7 15.3 17.1 80 2.2 S 41 54 22 29 1014.0 1014.0 0.0
21/11:00pm 21.0 15.8 18.3 84 1.7 S 43 52 23 28 1013.6 1013.6 0.0
21/10:36pm 21.0 15.5 18.1 83 1.8 S 44 63 24 34 1013.2 1013.2 0.0
21/10:30pm 21.0 15.7 18.1 83 1.8 S 43 54 23 29 1013.1 1013.1 0.0
21/10:08pm 21.0 15.6 18.3 84 1.7 S 44 63 24 34 1013.0 1013.0 0.0
21/10:00pm 21.1 15.9 18.4 84 1.7 S 43 54 23 29 1012.9 1012.9 0.0
21/09:30pm 21.2 16.1 18.6 85 1.6 S 43 54 23 29 1012.4 1012.4 0.0
21/09:00pm 21.4 16.3 18.7 84 1.7 S 43 54 23 29 1011.9 1011.9 0.0
21/08:30pm 21.7 16.5 18.7 83 1.9 S 44 54 24 29 1011.0 1011.0 0.0
21/08:00pm 22.0 16.5 18.2 79 2.4 S 44 56 24 30 1010.3 1010.3 0.0
21/07:30pm 22.2 16.7 18.2 78 2.5 S 44 56 24 30 1009.6 1009.6 0.0
21/07:00pm 22.3 17.9 19.2 82 2.0 S 41 56 22 30 1008.8 1008.8 0.0
21/06:30pm 22.4 17.5 19.4 83 1.9 S 44 56 24 30 1007.8 1007.8 0.0
21/06:00pm 23.3 18.9 20.5 84 1.8 S 44 54 24 29 1007.0 1007.0 0.0
21/05:41pm 23.9 19.8 20.8 83 2.0 S 43 56 23 30 1006.1 1006.1 0.0
21/05:30pm 24.6 25.2 21.3 82 2.2 SE 20 24 11 13 1005.7 1005.7 0.0
21/05:00pm 27.7 27.0 19.4 60 5.4 SSE 22 28 12 15 1005.3 1005.3 0.0
21/04:30pm 27.0 26.5 20.0 65 4.6 SSE 22 26 12 14 1005.1 1005.1 0.0
21/04:00pm 28.6 27.9 19.4 57 6.0 SE 22 28 12 15 1005.0 1005.0 0.0
21/03:30pm 27.2 25.4 18.8 60 5.4 SE 26 32 14 17 1005.0 1005.0 0.0
21/03:00pm 27.4 25.5 18.5 58 5.7 SSE 26 30 14 16 1004.9 1004.9 0.0
21/02:30pm 28.3 26.0 18.5 55 6.3 SE 28 33 15 18 1004.8 1004.8 0.0
21/02:00pm 30.0 26.9 17.6 47 7.9 SSE 30 39 16 21 1004.4 1004.4 0.0
21/01:50pm 30.8 28.9 16.7 42 8.9 SSE 22 32 12 17 1004.4 1004.4 0.0
21/01:30pm 36.1 32.7 11.4 22 14.7 E 20 24 11 13 1004.3 1004.3 0.0
21/01:00pm 33.4 30.0 13.7 30 12.0 E 24 28 13 15 1004.7 1004.7 0.0
21/12:30pm 32.7 30.6 15.1 34 10.9 E 20 22 11 12 1005.0 1005.0 0.0
21/12:00pm 32.4 29.8 13.8 32 11.3 SE 20 24 11 13 1005.3 1005.3 0.0
21/11:30am 28.7 27.2 16.7 48 7.5 SE 20 22 11 12 1006.0 1006.0 0.0
21/11:00am 24.9 25.4 18.4 67 4.1 ESE 13 15 7 8 1006.5 1006.5 0.0
21/10:30am 24.3 24.3 19.0 72 3.4 SSE 17 19 9 10 1006.9 1006.9 0.0
21/10:00am 25.5 24.2 16.8 58 5.4 SE 19 22 10 12 1007.0 1007.0 0.0
21/09:30am 25.4 24.2 17.0 59 5.2 ESE 19 20 10 11 1007.2 1007.2 0.0
21/09:00am 25.5 24.2 18.1 63 4.7 SSE 22 26 12 14 1007.5 1007.5 0.0
21/08:39am 24.7 23.2 18.6 69 3.9 S 24 28 13 15 1007.3 1007.3 0.0
21/08:30am 30.3 28.8 13.2 35 10.2 SW 13 17 7 9 1007.2 1007.2 0.0
21/08:00am 29.3 28.3 14.7 41 8.9 NW 13 15 7 8 1006.5 1006.5 0.0
21/07:30am 27.6 27.0 15.7 48 7.3 NNW 13 19 7 10 1006.3 1006.3 0.0
21/07:00am 25.8 25.9 16.6 56 5.7 NNW 11 13 6 7 1006.0 1006.0 0.0
21/06:30am 24.7 23.7 15.6 57 5.5 NNE 15 20 8 11 1005.9 1005.9 0.0
21/06:00am 25.1 22.9 14.5 51 6.3 WNW 19 26 10 14 1007.1 1007.1 0.0

Latest Capital City Observations: Canberra | Sydney | Melbourne | Brisbane | Adelaide | Perth | Hobart | Darwin

Other Formats:

Comma delimited format used in spreadsheet applications
http://www.bom.gov.au/fwo/IDN60901/IDN60901.94767.axf

JavaScript Object Notation format (JSON) in row-major order
http://www.bom.gov.au/fwo/IDN60901/IDN60901.94767.json